sensor_id;sensor_type;location;lat;lon;timestamp;P1;durP1;ratioP1;P2;durP2;ratioP2
61960;SDS011;47923;42.506;24.192;2022-08-07T00:00:34;7.80;;;5.22;;
61960;SDS011;47923;42.506;24.192;2022-08-07T00:03:00;8.10;;;5.95;;
61960;SDS011;47923;42.506;24.192;2022-08-07T00:05:26;7.47;;;5.75;;
61960;SDS011;47923;42.506;24.192;2022-08-07T00:07:52;7.22;;;5.03;;
61960;SDS011;47923;42.506;24.192;2022-08-07T00:10:19;9.15;;;6.05;;
61960;SDS011;47923;42.506;24.192;2022-08-07T00:12:44;7.80;;;5.50;;
61960;SDS011;47923;42.506;24.192;2022-08-07T00:15:10;8.82;;;5.40;;
61960;SDS011;47923;42.506;24.192;2022-08-07T00:17:36;9.07;;;5.65;;
61960;SDS011;47923;42.506;24.192;2022-08-07T00:20:03;8.63;;;5.82;;
61960;SDS011;47923;42.506;24.192;2022-08-07T00:22:29;7.50;;;5.38;;
61960;SDS011;47923;42.506;24.192;2022-08-07T00:24:55;9.70;;;5.78;;
61960;SDS011;47923;42.506;24.192;2022-08-07T00:27:20;8.35;;;5.40;;
61960;SDS011;47923;42.506;24.192;2022-08-07T00:29:46;8.68;;;6.88;;
61960;SDS011;47923;42.506;24.192;2022-08-07T00:32:12;8.93;;;5.53;;
61960;SDS011;47923;42.506;24.192;2022-08-07T00:34:38;11.13;;;5.78;;
61960;SDS011;47923;42.506;24.192;2022-08-07T00:37:04;9.57;;;6.47;;
61960;SDS011;47923;42.506;24.192;2022-08-07T00:39:31;8.15;;;5.93;;
61960;SDS011;47923;42.506;24.192;2022-08-07T00:41:57;8.85;;;5.82;;
61960;SDS011;47923;42.506;24.192;2022-08-07T00:44:24;8.38;;;5.70;;
61960;SDS011;47923;42.506;24.192;2022-08-07T00:46:50;8.55;;;6.43;;
61960;SDS011;47923;42.506;24.192;2022-08-07T00:49:16;10.65;;;6.20;;
61960;SDS011;47923;42.506;24.192;2022-08-07T00:51:41;8.20;;;5.53;;
61960;SDS011;47923;42.506;24.192;2022-08-07T00:54:07;8.07;;;5.72;;
61960;SDS011;47923;42.506;24.192;2022-08-07T00:56:34;9.82;;;6.40;;
61960;SDS011;47923;42.506;24.192;2022-08-07T00:59:00;9.40;;;6.65;;
61960;SDS011;47923;42.506;24.192;2022-08-07T01:01:26;8.52;;;6.32;;
61960;SDS011;47923;42.506;24.192;2022-08-07T01:03:52;8.10;;;6.10;;
61960;SDS011;47923;42.506;24.192;2022-08-07T01:06:17;8.48;;;6.03;;
61960;SDS011;47923;42.506;24.192;2022-08-07T01:08:44;9.95;;;6.43;;
61960;SDS011;47923;42.506;24.192;2022-08-07T01:11:11;8.10;;;6.40;;
61960;SDS011;47923;42.506;24.192;2022-08-07T01:13:37;11.43;;;6.63;;
61960;SDS011;47923;42.506;24.192;2022-08-07T01:16:04;9.90;;;6.40;;
61960;SDS011;47923;42.506;24.192;2022-08-07T01:18:30;9.00;;;6.50;;
61960;SDS011;47923;42.506;24.192;2022-08-07T01:21:04;8.27;;;6.03;;
61960;SDS011;47923;42.506;24.192;2022-08-07T01:23:29;8.68;;;6.43;;
61960;SDS011;47923;42.506;24.192;2022-08-07T01:25:56;9.02;;;6.18;;
61960;SDS011;47923;42.506;24.192;2022-08-07T01:28:23;7.97;;;5.82;;
61960;SDS011;47923;42.506;24.192;2022-08-07T01:30:49;9.73;;;6.43;;
61960;SDS011;47923;42.506;24.192;2022-08-07T01:33:17;8.73;;;5.93;;
61960;SDS011;47923;42.506;24.192;2022-08-07T01:35:42;8.68;;;5.93;;
61960;SDS011;47923;42.506;24.192;2022-08-07T01:38:08;10.70;;;5.85;;
61960;SDS011;47923;42.506;24.192;2022-08-07T01:40:33;8.45;;;6.45;;
61960;SDS011;47923;42.506;24.192;2022-08-07T01:42:59;9.38;;;5.72;;
61960;SDS011;47923;42.506;24.192;2022-08-07T01:45:25;10.85;;;6.30;;
61960;SDS011;47923;42.506;24.192;2022-08-07T01:47:51;10.70;;;6.00;;
61960;SDS011;47923;42.506;24.192;2022-08-07T01:50:16;11.60;;;6.60;;
61960;SDS011;47923;42.506;24.192;2022-08-07T01:52:42;9.60;;;5.88;;
61960;SDS011;47923;42.506;24.192;2022-08-07T01:55:11;7.88;;;5.63;;
61960;SDS011;47923;42.506;24.192;2022-08-07T01:57:40;9.05;;;6.40;;
61960;SDS011;47923;42.506;24.192;2022-08-07T02:00:07;8.18;;;5.47;;
61960;SDS011;47923;42.506;24.192;2022-08-07T02:05:17;9.45;;;6.72;;
61960;SDS011;47923;42.506;24.192;2022-08-07T02:08:08;9.45;;;6.43;;
61960;SDS011;47923;42.506;24.192;2022-08-07T02:10:36;8.43;;;5.97;;
61960;SDS011;47923;42.506;24.192;2022-08-07T02:13:03;8.57;;;6.40;;
61960;SDS011;47923;42.506;24.192;2022-08-07T02:15:30;9.13;;;6.20;;
61960;SDS011;47923;42.506;24.192;2022-08-07T02:17:58;10.38;;;6.93;;
61960;SDS011;47923;42.506;24.192;2022-08-07T02:20:26;9.30;;;7.00;;
61960;SDS011;47923;42.506;24.192;2022-08-07T02:22:55;9.55;;;6.45;;
61960;SDS011;47923;42.506;24.192;2022-08-07T02:25:25;8.77;;;5.43;;
61960;SDS011;47923;42.506;24.192;2022-08-07T02:27:52;11.27;;;6.45;;
61960;SDS011;47923;42.506;24.192;2022-08-07T02:30:19;9.25;;;6.15;;
61960;SDS011;47923;42.506;24.192;2022-08-07T02:32:45;10.13;;;7.15;;
61960;SDS011;47923;42.506;24.192;2022-08-07T02:35:11;9.38;;;6.95;;
61960;SDS011;47923;42.506;24.192;2022-08-07T02:37:42;9.23;;;6.35;;
61960;SDS011;47923;42.506;24.192;2022-08-07T02:40:09;9.50;;;6.68;;
61960;SDS011;47923;42.506;24.192;2022-08-07T02:42:35;10.27;;;6.45;;
61960;SDS011;47923;42.506;24.192;2022-08-07T02:45:02;8.40;;;6.13;;
61960;SDS011;47923;42.506;24.192;2022-08-07T02:47:29;9.00;;;6.20;;
61960;SDS011;47923;42.506;24.192;2022-08-07T02:49:54;9.48;;;6.75;;
61960;SDS011;47923;42.506;24.192;2022-08-07T02:52:42;9.23;;;6.57;;
61960;SDS011;47923;42.506;24.192;2022-08-07T02:55:18;8.88;;;6.30;;
61960;SDS011;47923;42.506;24.192;2022-08-07T02:57:46;9.02;;;6.60;;
61960;SDS011;47923;42.506;24.192;2022-08-07T03:00:14;8.85;;;6.28;;
61960;SDS011;47923;42.506;24.192;2022-08-07T03:02:41;10.88;;;7.30;;
61960;SDS011;47923;42.506;24.192;2022-08-07T03:05:10;10.68;;;6.32;;
61960;SDS011;47923;42.506;24.192;2022-08-07T03:07:37;9.32;;;6.25;;
61960;SDS011;47923;42.506;24.192;2022-08-07T03:10:04;8.70;;;6.43;;
61960;SDS011;47923;42.506;24.192;2022-08-07T03:12:31;9.20;;;6.28;;
61960;SDS011;47923;42.506;24.192;2022-08-07T03:14:58;11.02;;;6.80;;
61960;SDS011;47923;42.506;24.192;2022-08-07T03:17:24;11.60;;;6.65;;
61960;SDS011;47923;42.506;24.192;2022-08-07T03:19:50;10.85;;;7.80;;
61960;SDS011;47923;42.506;24.192;2022-08-07T03:22:16;8.63;;;6.53;;
61960;SDS011;47923;42.506;24.192;2022-08-07T03:24:44;10.40;;;7.53;;
61960;SDS011;47923;42.506;24.192;2022-08-07T03:27:09;9.75;;;7.32;;
61960;SDS011;47923;42.506;24.192;2022-08-07T03:29:36;9.57;;;6.97;;
61960;SDS011;47923;42.506;24.192;2022-08-07T03:32:05;10.13;;;7.10;;
61960;SDS011;47923;42.506;24.192;2022-08-07T03:34:34;9.23;;;7.03;;
61960;SDS011;47923;42.506;24.192;2022-08-07T03:37:02;11.02;;;7.32;;
61960;SDS011;47923;42.506;24.192;2022-08-07T03:39:33;11.45;;;7.80;;
61960;SDS011;47923;42.506;24.192;2022-08-07T03:42:01;10.13;;;7.25;;
61960;SDS011;47923;42.506;24.192;2022-08-07T03:44:28;10.27;;;7.25;;
61960;SDS011;47923;42.506;24.192;2022-08-07T03:46:54;11.40;;;7.00;;
61960;SDS011;47923;42.506;24.192;2022-08-07T03:49:20;10.02;;;6.90;;
61960;SDS011;47923;42.506;24.192;2022-08-07T03:51:46;10.30;;;6.68;;
61960;SDS011;47923;42.506;24.192;2022-08-07T03:54:13;9.75;;;6.70;;
61960;SDS011;47923;42.506;24.192;2022-08-07T03:56:39;9.82;;;7.05;;
61960;SDS011;47923;42.506;24.192;2022-08-07T03:59:06;10.50;;;6.22;;
61960;SDS011;47923;42.506;24.192;2022-08-07T04:01:36;11.63;;;7.13;;
61960;SDS011;47923;42.506;24.192;2022-08-07T04:04:05;9.27;;;6.65;;
61960;SDS011;47923;42.506;24.192;2022-08-07T04:06:31;9.85;;;6.32;;
61960;SDS011;47923;42.506;24.192;2022-08-07T04:08:58;9.60;;;6.55;;
61960;SDS011;47923;42.506;24.192;2022-08-07T04:11:25;9.82;;;5.32;;
61960;SDS011;47923;42.506;24.192;2022-08-07T04:13:51;10.30;;;6.95;;
61960;SDS011;47923;42.506;24.192;2022-08-07T04:16:18;10.07;;;6.38;;
61960;SDS011;47923;42.506;24.192;2022-08-07T04:18:45;12.80;;;5.93;;
61960;SDS011;47923;42.506;24.192;2022-08-07T04:21:10;9.60;;;7.03;;
61960;SDS011;47923;42.506;24.192;2022-08-07T04:23:36;8.40;;;5.50;;
61960;SDS011;47923;42.506;24.192;2022-08-07T04:26:03;8.20;;;5.38;;
61960;SDS011;47923;42.506;24.192;2022-08-07T04:28:31;8.05;;;4.97;;
61960;SDS011;47923;42.506;24.192;2022-08-07T04:30:57;9.05;;;4.75;;
61960;SDS011;47923;42.506;24.192;2022-08-07T04:33:22;9.30;;;4.65;;
61960;SDS011;47923;42.506;24.192;2022-08-07T04:35:49;7.68;;;4.68;;
61960;SDS011;47923;42.506;24.192;2022-08-07T04:38:14;8.02;;;4.45;;
61960;SDS011;47923;42.506;24.192;2022-08-07T04:40:41;8.25;;;4.47;;
61960;SDS011;47923;42.506;24.192;2022-08-07T04:43:08;6.78;;;4.43;;
61960;SDS011;47923;42.506;24.192;2022-08-07T04:45:59;6.85;;;4.55;;
61960;SDS011;47923;42.506;24.192;2022-08-07T04:48:26;8.55;;;5.70;;
61960;SDS011;47923;42.506;24.192;2022-08-07T04:50:53;12.10;;;5.70;;
61960;SDS011;47923;42.506;24.192;2022-08-07T04:53:30;6.30;;;4.70;;
61960;SDS011;47923;42.506;24.192;2022-08-07T04:59:15;8.93;;;6.18;;
61960;SDS011;47923;42.506;24.192;2022-08-07T05:01:53;7.40;;;4.28;;
61960;SDS011;47923;42.506;24.192;2022-08-07T05:04:30;6.13;;;4.32;;
61960;SDS011;47923;42.506;24.192;2022-08-07T05:07:17;7.07;;;4.22;;
61960;SDS011;47923;42.506;24.192;2022-08-07T05:09:54;7.20;;;4.22;;
61960;SDS011;47923;42.506;24.192;2022-08-07T05:12:31;5.95;;;4.07;;
61960;SDS011;47923;42.506;24.192;2022-08-07T05:15:06;8.05;;;4.63;;
61960;SDS011;47923;42.506;24.192;2022-08-07T05:17:53;5.78;;;4.38;;
61960;SDS011;47923;42.506;24.192;2022-08-07T05:20:26;6.75;;;4.43;;
61960;SDS011;47923;42.506;24.192;2022-08-07T05:22:59;6.18;;;4.05;;
61960;SDS011;47923;42.506;24.192;2022-08-07T05:25:29;6.27;;;4.13;;
61960;SDS011;47923;42.506;24.192;2022-08-07T05:27:56;6.88;;;4.32;;
61960;SDS011;47923;42.506;24.192;2022-08-07T05:30:23;6.90;;;4.75;;
61960;SDS011;47923;42.506;24.192;2022-08-07T05:32:50;5.68;;;4.05;;
61960;SDS011;47923;42.506;24.192;2022-08-07T05:35:17;8.07;;;4.57;;
61960;SDS011;47923;42.506;24.192;2022-08-07T05:37:44;6.43;;;4.45;;
61960;SDS011;47923;42.506;24.192;2022-08-07T05:40:10;6.90;;;4.10;;
61960;SDS011;47923;42.506;24.192;2022-08-07T05:42:37;5.45;;;3.90;;
61960;SDS011;47923;42.506;24.192;2022-08-07T05:45:03;5.07;;;3.70;;
61960;SDS011;47923;42.506;24.192;2022-08-07T05:47:30;5.93;;;4.18;;
61960;SDS011;47923;42.506;24.192;2022-08-07T05:49:56;5.97;;;4.40;;
61960;SDS011;47923;42.506;24.192;2022-08-07T05:52:22;6.53;;;4.32;;
61960;SDS011;47923;42.506;24.192;2022-08-07T05:54:48;5.47;;;3.88;;
61960;SDS011;47923;42.506;24.192;2022-08-07T05:57:13;7.30;;;3.90;;
61960;SDS011;47923;42.506;24.192;2022-08-07T05:59:40;5.38;;;3.83;;
61960;SDS011;47923;42.506;24.192;2022-08-07T06:02:08;5.60;;;4.03;;
61960;SDS011;47923;42.506;24.192;2022-08-07T06:04:39;6.57;;;3.50;;
61960;SDS011;47923;42.506;24.192;2022-08-07T06:07:09;5.90;;;4.32;;
61960;SDS011;47923;42.506;24.192;2022-08-07T06:09:35;4.57;;;3.70;;
61960;SDS011;47923;42.506;24.192;2022-08-07T06:12:02;5.97;;;3.88;;
61960;SDS011;47923;42.506;24.192;2022-08-07T06:14:27;5.38;;;3.83;;
61960;SDS011;47923;42.506;24.192;2022-08-07T06:16:53;5.57;;;4.30;;
61960;SDS011;47923;42.506;24.192;2022-08-07T06:19:19;6.38;;;4.03;;
61960;SDS011;47923;42.506;24.192;2022-08-07T06:21:45;5.40;;;3.97;;
61960;SDS011;47923;42.506;24.192;2022-08-07T06:24:11;6.50;;;4.18;;
61960;SDS011;47923;42.506;24.192;2022-08-07T06:26:38;8.40;;;4.63;;
61960;SDS011;47923;42.506;24.192;2022-08-07T06:29:06;5.82;;;3.97;;
61960;SDS011;47923;42.506;24.192;2022-08-07T06:31:32;6.88;;;4.18;;
61960;SDS011;47923;42.506;24.192;2022-08-07T06:33:58;6.57;;;4.30;;
61960;SDS011;47923;42.506;24.192;2022-08-07T06:36:24;6.45;;;4.55;;
61960;SDS011;47923;42.506;24.192;2022-08-07T06:38:51;6.45;;;5.00;;
61960;SDS011;47923;42.506;24.192;2022-08-07T06:41:20;7.72;;;5.57;;
61960;SDS011;47923;42.506;24.192;2022-08-07T06:43:49;9.48;;;5.15;;
61960;SDS011;47923;42.506;24.192;2022-08-07T06:46:17;7.10;;;5.38;;
61960;SDS011;47923;42.506;24.192;2022-08-07T06:48:43;8.57;;;5.03;;
61960;SDS011;47923;42.506;24.192;2022-08-07T06:51:09;8.95;;;5.68;;
61960;SDS011;47923;42.506;24.192;2022-08-07T06:53:39;8.52;;;5.03;;
61960;SDS011;47923;42.506;24.192;2022-08-07T06:56:06;6.38;;;4.53;;
61960;SDS011;47923;42.506;24.192;2022-08-07T06:58:33;7.10;;;5.35;;
61960;SDS011;47923;42.506;24.192;2022-08-07T07:00:59;8.70;;;5.78;;
61960;SDS011;47923;42.506;24.192;2022-08-07T07:03:29;6.93;;;5.38;;
61960;SDS011;47923;42.506;24.192;2022-08-07T07:05:55;7.45;;;5.13;;
61960;SDS011;47923;42.506;24.192;2022-08-07T07:08:25;7.32;;;4.78;;
61960;SDS011;47923;42.506;24.192;2022-08-07T07:10:52;7.95;;;5.07;;
61960;SDS011;47923;42.506;24.192;2022-08-07T07:13:21;11.48;;;5.30;;
61960;SDS011;47923;42.506;24.192;2022-08-07T07:15:57;7.00;;;4.45;;
61960;SDS011;47923;42.506;24.192;2022-08-07T07:18:30;8.68;;;5.63;;
61960;SDS011;47923;42.506;24.192;2022-08-07T07:21:14;7.18;;;5.05;;
61960;SDS011;47923;42.506;24.192;2022-08-07T07:23:46;7.30;;;5.18;;
61960;SDS011;47923;42.506;24.192;2022-08-07T07:26:13;9.23;;;6.00;;
61960;SDS011;47923;42.506;24.192;2022-08-07T07:28:55;9.50;;;5.82;;
61960;SDS011;47923;42.506;24.192;2022-08-07T07:31:34;8.27;;;5.38;;
61960;SDS011;47923;42.506;24.192;2022-08-07T07:34:06;7.13;;;4.90;;
61960;SDS011;47923;42.506;24.192;2022-08-07T07:36:38;7.10;;;5.00;;
61960;SDS011;47923;42.506;24.192;2022-08-07T07:39:07;6.78;;;4.88;;
61960;SDS011;47923;42.506;24.192;2022-08-07T07:41:34;8.07;;;5.00;;
61960;SDS011;47923;42.506;24.192;2022-08-07T07:44:02;7.88;;;5.45;;
61960;SDS011;47923;42.506;24.192;2022-08-07T07:46:31;7.45;;;4.97;;
61960;SDS011;47923;42.506;24.192;2022-08-07T07:48:59;7.50;;;5.05;;
61960;SDS011;47923;42.506;24.192;2022-08-07T07:51:27;8.30;;;5.18;;
61960;SDS011;47923;42.506;24.192;2022-08-07T07:53:55;7.57;;;5.30;;
61960;SDS011;47923;42.506;24.192;2022-08-07T07:56:22;8.85;;;5.97;;
61960;SDS011;47923;42.506;24.192;2022-08-07T07:58:50;6.55;;;4.50;;
61960;SDS011;47923;42.506;24.192;2022-08-07T08:01:18;9.45;;;5.28;;
61960;SDS011;47923;42.506;24.192;2022-08-07T08:03:46;8.45;;;5.57;;
61960;SDS011;47923;42.506;24.192;2022-08-07T08:06:14;8.38;;;5.43;;
61960;SDS011;47923;42.506;24.192;2022-08-07T08:08:40;7.82;;;4.68;;
61960;SDS011;47923;42.506;24.192;2022-08-07T08:11:08;9.57;;;4.78;;
61960;SDS011;47923;42.506;24.192;2022-08-07T08:13:35;6.32;;;4.70;;
61960;SDS011;47923;42.506;24.192;2022-08-07T08:16:06;8.15;;;4.50;;
61960;SDS011;47923;42.506;24.192;2022-08-07T08:18:32;6.80;;;4.80;;
61960;SDS011;47923;42.506;24.192;2022-08-07T08:21:00;8.90;;;4.80;;
61960;SDS011;47923;42.506;24.192;2022-08-07T08:23:30;7.28;;;4.57;;
61960;SDS011;47923;42.506;24.192;2022-08-07T08:26:15;9.85;;;5.13;;
61960;SDS011;47923;42.506;24.192;2022-08-07T08:29:02;6.00;;;4.40;;
61960;SDS011;47923;42.506;24.192;2022-08-07T08:31:29;6.40;;;4.47;;
61960;SDS011;47923;42.506;24.192;2022-08-07T08:33:57;5.35;;;3.90;;
61960;SDS011;47923;42.506;24.192;2022-08-07T08:36:26;6.68;;;4.15;;
61960;SDS011;47923;42.506;24.192;2022-08-07T08:38:54;6.63;;;4.07;;
61960;SDS011;47923;42.506;24.192;2022-08-07T08:41:26;5.65;;;3.53;;
61960;SDS011;47923;42.506;24.192;2022-08-07T08:46:31;5.85;;;4.03;;
61960;SDS011;47923;42.506;24.192;2022-08-07T08:51:38;6.57;;;3.80;;
61960;SDS011;47923;42.506;24.192;2022-08-07T08:54:15;6.00;;;4.00;;
61960;SDS011;47923;42.506;24.192;2022-08-07T08:56:50;7.95;;;4.50;;
61960;SDS011;47923;42.506;24.192;2022-08-07T09:02:04;8.13;;;5.20;;
61960;SDS011;47923;42.506;24.192;2022-08-07T09:04:53;7.50;;;5.53;;
61960;SDS011;47923;42.506;24.192;2022-08-07T09:24:43;6.20;;;4.45;;
61960;SDS011;47923;42.506;24.192;2022-08-07T09:29:51;7.22;;;4.72;;
61960;SDS011;47923;42.506;24.192;2022-08-07T09:38:06;6.20;;;4.22;;
61960;SDS011;47923;42.506;24.192;2022-08-07T09:43:27;6.38;;;4.57;;
61960;SDS011;47923;42.506;24.192;2022-08-07T09:46:27;8.05;;;5.60;;
61960;SDS011;47923;42.506;24.192;2022-08-07T09:49:24;8.63;;;6.18;;
61960;SDS011;47923;42.506;24.192;2022-08-07T09:52:03;8.60;;;4.90;;
61960;SDS011;47923;42.506;24.192;2022-08-07T09:57:06;8.32;;;5.22;;
61960;SDS011;47923;42.506;24.192;2022-08-07T10:34:07;9.07;;;5.80;;
61960;SDS011;47923;42.506;24.192;2022-08-07T10:36:57;8.70;;;5.00;;
61960;SDS011;47923;42.506;24.192;2022-08-07T10:44:57;9.77;;;5.53;;
61960;SDS011;47923;42.506;24.192;2022-08-07T10:48:06;8.52;;;5.50;;
61960;SDS011;47923;42.506;24.192;2022-08-07T10:51:31;8.98;;;5.85;;
61960;SDS011;47923;42.506;24.192;2022-08-07T10:56:24;10.05;;;6.25;;
61960;SDS011;47923;42.506;24.192;2022-08-07T11:01:52;11.13;;;6.75;;
61960;SDS011;47923;42.506;24.192;2022-08-07T11:09:58;10.90;;;6.55;;
61960;SDS011;47923;42.506;24.192;2022-08-07T11:12:41;9.30;;;6.20;;
61960;SDS011;47923;42.506;24.192;2022-08-07T11:15:16;11.45;;;5.88;;
61960;SDS011;47923;42.506;24.192;2022-08-07T11:17:53;8.38;;;5.78;;
61960;SDS011;47923;42.506;24.192;2022-08-07T11:23:41;7.57;;;5.55;;
61960;SDS011;47923;42.506;24.192;2022-08-07T11:26:21;8.77;;;6.35;;
61960;SDS011;47923;42.506;24.192;2022-08-07T11:28:57;9.35;;;5.78;;
61960;SDS011;47923;42.506;24.192;2022-08-07T11:31:36;9.20;;;6.35;;
61960;SDS011;47923;42.506;24.192;2022-08-07T11:34:15;8.82;;;6.20;;
61960;SDS011;47923;42.506;24.192;2022-08-07T12:02:02;8.68;;;5.57;;
61960;SDS011;47923;42.506;24.192;2022-08-07T12:07:34;11.18;;;7.13;;
61960;SDS011;47923;42.506;24.192;2022-08-07T12:10:12;11.18;;;6.85;;
61960;SDS011;47923;42.506;24.192;2022-08-07T12:12:45;8.88;;;6.03;;
61960;SDS011;47923;42.506;24.192;2022-08-07T12:15:26;8.25;;;5.97;;
61960;SDS011;47923;42.506;24.192;2022-08-07T12:20:46;8.27;;;5.85;;
61960;SDS011;47923;42.506;24.192;2022-08-07T12:23:48;9.20;;;6.07;;
61960;SDS011;47923;42.506;24.192;2022-08-07T12:26:28;9.13;;;6.30;;
61960;SDS011;47923;42.506;24.192;2022-08-07T12:29:16;13.57;;;6.75;;
61960;SDS011;47923;42.506;24.192;2022-08-07T12:34:35;10.55;;;6.80;;
61960;SDS011;47923;42.506;24.192;2022-08-07T12:37:03;9.77;;;6.70;;
61960;SDS011;47923;42.506;24.192;2022-08-07T12:39:31;10.20;;;6.72;;
61960;SDS011;47923;42.506;24.192;2022-08-07T12:41:59;11.27;;;7.10;;
61960;SDS011;47923;42.506;24.192;2022-08-07T12:44:25;10.82;;;6.85;;
61960;SDS011;47923;42.506;24.192;2022-08-07T12:49:36;8.32;;;6.63;;
61960;SDS011;47923;42.506;24.192;2022-08-07T12:52:13;9.07;;;6.63;;
61960;SDS011;47923;42.506;24.192;2022-08-07T12:55:02;12.65;;;7.13;;
61960;SDS011;47923;42.506;24.192;2022-08-07T12:57:36;9.32;;;7.30;;
61960;SDS011;47923;42.506;24.192;2022-08-07T13:00:04;8.80;;;6.90;;
61960;SDS011;47923;42.506;24.192;2022-08-07T13:05:43;11.55;;;7.53;;
61960;SDS011;47923;42.506;24.192;2022-08-07T13:08:39;10.00;;;7.80;;
61960;SDS011;47923;42.506;24.192;2022-08-07T13:14:02;9.82;;;7.68;;
61960;SDS011;47923;42.506;24.192;2022-08-07T13:16:40;11.55;;;7.93;;
61960;SDS011;47923;42.506;24.192;2022-08-07T13:19:22;8.90;;;6.82;;
61960;SDS011;47923;42.506;24.192;2022-08-07T13:25:02;9.60;;;7.90;;
61960;SDS011;47923;42.506;24.192;2022-08-07T13:30:05;9.48;;;7.75;;
61960;SDS011;47923;42.506;24.192;2022-08-07T13:43:40;9.63;;;7.85;;
61960;SDS011;47923;42.506;24.192;2022-08-07T13:46:06;10.10;;;7.97;;
61960;SDS011;47923;42.506;24.192;2022-08-07T13:48:36;10.70;;;8.35;;
61960;SDS011;47923;42.506;24.192;2022-08-07T13:51:03;11.13;;;8.50;;
61960;SDS011;47923;42.506;24.192;2022-08-07T13:53:34;9.68;;;7.63;;
61960;SDS011;47923;42.506;24.192;2022-08-07T13:56:04;10.40;;;7.82;;
61960;SDS011;47923;42.506;24.192;2022-08-07T13:58:35;10.88;;;7.85;;
61960;SDS011;47923;42.506;24.192;2022-08-07T14:01:22;10.77;;;7.57;;
61960;SDS011;47923;42.506;24.192;2022-08-07T14:03:50;9.23;;;7.10;;
61960;SDS011;47923;42.506;24.192;2022-08-07T14:06:18;10.40;;;7.75;;
61960;SDS011;47923;42.506;24.192;2022-08-07T14:08:47;11.85;;;8.60;;
61960;SDS011;47923;42.506;24.192;2022-08-07T14:11:16;11.02;;;8.02;;
61960;SDS011;47923;42.506;24.192;2022-08-07T14:13:46;10.05;;;7.75;;
61960;SDS011;47923;42.506;24.192;2022-08-07T14:16:19;9.23;;;6.80;;
61960;SDS011;47923;42.506;24.192;2022-08-07T14:18:51;10.75;;;6.45;;
61960;SDS011;47923;42.506;24.192;2022-08-07T14:21:23;6.60;;;4.75;;
61960;SDS011;47923;42.506;24.192;2022-08-07T14:23:58;7.80;;;4.55;;
61960;SDS011;47923;42.506;24.192;2022-08-07T14:26:31;6.90;;;4.65;;
61960;SDS011;47923;42.506;24.192;2022-08-07T14:29:04;9.35;;;5.78;;
61960;SDS011;47923;42.506;24.192;2022-08-07T14:31:34;8.07;;;5.13;;
61960;SDS011;47923;42.506;24.192;2022-08-07T14:34:00;9.05;;;5.80;;
61960;SDS011;47923;42.506;24.192;2022-08-07T14:36:28;7.82;;;5.72;;
61960;SDS011;47923;42.506;24.192;2022-08-07T14:38:59;7.50;;;5.18;;
61960;SDS011;47923;42.506;24.192;2022-08-07T14:41:28;7.85;;;5.65;;
61960;SDS011;47923;42.506;24.192;2022-08-07T14:44:00;8.85;;;5.63;;
61960;SDS011;47923;42.506;24.192;2022-08-07T14:46:28;9.43;;;5.88;;
61960;SDS011;47923;42.506;24.192;2022-08-07T14:48:56;11.25;;;5.82;;
61960;SDS011;47923;42.506;24.192;2022-08-07T14:51:25;10.48;;;5.70;;
61960;SDS011;47923;42.506;24.192;2022-08-07T14:53:52;7.55;;;5.47;;
61960;SDS011;47923;42.506;24.192;2022-08-07T14:56:20;8.75;;;6.13;;
61960;SDS011;47923;42.506;24.192;2022-08-07T14:58:50;8.07;;;6.00;;
61960;SDS011;47923;42.506;24.192;2022-08-07T15:01:18;9.63;;;5.95;;
61960;SDS011;47923;42.506;24.192;2022-08-07T15:03:47;9.52;;;5.97;;
61960;SDS011;47923;42.506;24.192;2022-08-07T15:06:14;8.02;;;5.72;;
61960;SDS011;47923;42.506;24.192;2022-08-07T15:11:18;8.98;;;6.18;;
61960;SDS011;47923;42.506;24.192;2022-08-07T15:16:15;9.68;;;6.75;;
61960;SDS011;47923;42.506;24.192;2022-08-07T15:18:48;10.93;;;6.35;;
61960;SDS011;47923;42.506;24.192;2022-08-07T15:21:20;9.57;;;7.32;;
61960;SDS011;47923;42.506;24.192;2022-08-07T15:26:23;9.98;;;7.47;;
61960;SDS011;47923;42.506;24.192;2022-08-07T15:28:59;14.40;;;6.45;;
61960;SDS011;47923;42.506;24.192;2022-08-07T15:31:27;8.88;;;6.53;;
61960;SDS011;47923;42.506;24.192;2022-08-07T15:33:56;10.85;;;6.50;;
61960;SDS011;47923;42.506;24.192;2022-08-07T15:36:25;9.38;;;7.22;;
61960;SDS011;47923;42.506;24.192;2022-08-07T15:38:52;10.15;;;6.45;;
61960;SDS011;47923;42.506;24.192;2022-08-07T15:41:20;10.15;;;7.18;;
61960;SDS011;47923;42.506;24.192;2022-08-07T15:43:58;8.25;;;6.32;;
61960;SDS011;47923;42.506;24.192;2022-08-07T15:46:27;7.57;;;5.88;;
61960;SDS011;47923;42.506;24.192;2022-08-07T15:48:55;9.15;;;6.43;;
61960;SDS011;47923;42.506;24.192;2022-08-07T15:51:23;10.30;;;6.55;;
61960;SDS011;47923;42.506;24.192;2022-08-07T15:53:52;9.52;;;6.85;;
61960;SDS011;47923;42.506;24.192;2022-08-07T15:56:42;9.48;;;6.65;;
61960;SDS011;47923;42.506;24.192;2022-08-07T15:59:08;9.23;;;6.65;;
61960;SDS011;47923;42.506;24.192;2022-08-07T16:01:43;8.88;;;6.95;;
61960;SDS011;47923;42.506;24.192;2022-08-07T16:04:12;8.77;;;6.32;;
61960;SDS011;47923;42.506;24.192;2022-08-07T16:06:47;8.55;;;6.00;;
61960;SDS011;47923;42.506;24.192;2022-08-07T16:14:58;10.30;;;6.07;;
61960;SDS011;47923;42.506;24.192;2022-08-07T16:20:18;10.05;;;6.75;;
61960;SDS011;47923;42.506;24.192;2022-08-07T16:37:36;8.77;;;6.05;;
61960;SDS011;47923;42.506;24.192;2022-08-07T16:59:49;7.25;;;5.45;;
61960;SDS011;47923;42.506;24.192;2022-08-07T17:08:06;10.18;;;6.53;;
61960;SDS011;47923;42.506;24.192;2022-08-07T17:16:01;7.82;;;5.82;;
61960;SDS011;47923;42.506;24.192;2022-08-07T17:27:21;10.93;;;6.55;;
61960;SDS011;47923;42.506;24.192;2022-08-07T17:30:09;9.35;;;5.82;;
61960;SDS011;47923;42.506;24.192;2022-08-07T17:32:46;9.80;;;6.60;;
61960;SDS011;47923;42.506;24.192;2022-08-07T17:35:31;9.13;;;6.55;;
61960;SDS011;47923;42.506;24.192;2022-08-07T17:38:14;12.63;;;6.60;;
61960;SDS011;47923;42.506;24.192;2022-08-07T17:43:28;9.25;;;6.78;;
61960;SDS011;47923;42.506;24.192;2022-08-07T17:48:32;9.23;;;6.20;;
61960;SDS011;47923;42.506;24.192;2022-08-07T17:51:08;10.40;;;6.28;;
61960;SDS011;47923;42.506;24.192;2022-08-07T17:56:23;9.88;;;6.88;;
61960;SDS011;47923;42.506;24.192;2022-08-07T18:01:19;9.88;;;7.10;;
61960;SDS011;47923;42.506;24.192;2022-08-07T18:06:33;10.20;;;6.50;;
61960;SDS011;47923;42.506;24.192;2022-08-07T18:09:03;8.05;;;6.15;;
61960;SDS011;47923;42.506;24.192;2022-08-07T18:11:33;11.77;;;6.80;;
61960;SDS011;47923;42.506;24.192;2022-08-07T18:16:54;9.98;;;6.90;;
61960;SDS011;47923;42.506;24.192;2022-08-07T18:19:28;11.65;;;8.07;;
61960;SDS011;47923;42.506;24.192;2022-08-07T18:22:09;10.50;;;6.78;;
61960;SDS011;47923;42.506;24.192;2022-08-07T18:24:53;12.35;;;7.20;;
61960;SDS011;47923;42.506;24.192;2022-08-07T18:28:33;9.20;;;6.22;;
61960;SDS011;47923;42.506;24.192;2022-08-07T18:33:35;11.02;;;7.38;;
61960;SDS011;47923;42.506;24.192;2022-08-07T18:36:38;8.43;;;6.28;;
61960;SDS011;47923;42.506;24.192;2022-08-07T18:39:24;10.18;;;7.22;;
61960;SDS011;47923;42.506;24.192;2022-08-07T18:58:37;10.52;;;7.80;;
61960;SDS011;47923;42.506;24.192;2022-08-07T19:04:12;10.38;;;7.13;;
61960;SDS011;47923;42.506;24.192;2022-08-07T19:06:46;9.57;;;7.63;;
61960;SDS011;47923;42.506;24.192;2022-08-07T19:12:18;10.63;;;6.90;;
61960;SDS011;47923;42.506;24.192;2022-08-07T19:26:08;8.00;;;5.95;;
61960;SDS011;47923;42.506;24.192;2022-08-07T19:28:36;8.90;;;6.03;;
61960;SDS011;47923;42.506;24.192;2022-08-07T19:31:11;9.73;;;6.57;;
61960;SDS011;47923;42.506;24.192;2022-08-07T19:33:42;8.20;;;6.60;;